Time;durP1;ratioP1;P1;durP2;ratioP2;P2;SDS_P1;SDS_P2;PMS_P1;PMS_P2;Temp;Humidity;BMP_temperature;BMP_pressure;BME280_temperature;BME280_humidity;BME280_pressure;Samples;Min_cycle;Max_cycle;Signal;HPM_P1;HPM_P2
2021/01/27 09:27:02;;;;;;;10.33;7.13;;;;;;;1.01;95.86;98904.78;5187424;27;20552;-81
2021/01/27 09:29:40;;;;;;;9.40;6.30;;;;;;;1.59;95.34;98890.31;5149965;27;39362;-84
2021/01/27 09:32:28;;;;;;;8.50;6.83;;;;;;;2.05;92.40;98889.94;5139436;27;41606;-83
2021/01/27 09:38:38;;;;;;;8.40;6.80;;;;;;;2.53;86.38;98878.06;5103561;28;41144;-86
2021/01/27 09:42:13;;;;;;;8.57;6.10;;;;;;;2.55;82.33;98871.94;5111321;27;40929;-84
2021/01/27 09:45:27;;;;;;;7.70;6.17;;;;;;;2.91;81.29;98899.56;5069880;28;41876;-82
2021/01/27 09:48:00;;;;;;;8.60;5.57;;;;;;;3.06;80.47;98909.56;5036150;28;41941;-84
2021/01/27 09:50:29;;;;;;;7.93;6.00;;;;;;;3.14;80.24;98911.94;5061227;28;42304;-83
2021/01/27 09:53:04;;;;;;;9.03;6.33;;;;;;;3.19;80.60;98916.13;5055539;28;38822;-84
2021/01/27 09:55:53;;;;;;;9.73;6.10;;;;;;;2.84;79.37;98848.38;5064769;28;42214;-84
2021/01/27 09:58:39;;;;;;;6.87;5.77;;;;;;;3.13;79.29;98892.75;5062936;28;44344;-83
2021/01/27 10:01:17;;;;;;;6.03;5.43;;;;;;;3.10;78.60;98874.53;5064718;28;41397;-81
2021/01/27 10:03:48;;;;;;;7.10;5.77;;;;;;;3.37;78.74;98892.88;5053797;28;39487;-82
2021/01/27 10:06:56;;;;;;;6.97;6.27;;;;;;;3.66;78.68;98915.47;5087919;28;42387;-84
2021/01/27 10:13:32;;;;;;;5.70;5.20;;;;;;;3.70;76.83;98907.47;5097910;28;42124;-82
2021/01/27 10:16:23;;;;;;;7.13;5.67;;;;;;;3.57;77.24;98865.13;5126814;27;39692;-82
2021/01/27 10:19:34;;;;;;;9.40;6.03;;;;;;;3.96;77.54;98889.06;5129847;27;40807;-86
2021/01/27 10:22:41;;;;;;;7.83;5.70;;;;;;;4.04;74.71;98885.34;5129066;27;43797;-85
2021/01/27 10:25:48;;;;;;;6.20;4.80;;;;;;;4.16;75.18;98871.78;5131668;27;41113;-84
2021/01/27 10:28:22;;;;;;;5.93;5.03;;;;;;;4.21;74.08;98867.22;5110947;27;40839;-86
2021/01/27 10:31:40;;;;;;;6.13;4.53;;;;;;;4.21;73.99;98868.06;5111914;27;42088;-88
2021/01/27 10:34:39;;;;;;;4.93;4.50;;;;;;;4.18;73.02;98862.09;5108868;27;42859;-85
2021/01/27 10:37:43;;;;;;;8.20;4.67;;;;;;;4.02;73.34;98829.50;5115097;27;41967;-85
2021/01/27 10:40:49;;;;;;;5.63;4.33;;;;;;;3.83;74.04;98790.84;5109063;27;39242;-87
2021/01/27 10:43:42;;;;;;;7.83;4.90;;;;;;;4.24;73.56;98851.38;5106204;27;42013;-85
2021/01/27 10:46:29;;;;;;;6.70;5.03;;;;;;;4.19;74.16;98827.97;5087220;28;42115;-81
2021/01/27 10:48:56;;;;;;;6.07;5.20;;;;;;;4.22;72.76;98853.19;5094332;28;41370;-83
2021/01/27 10:51:32;;;;;;;8.27;5.23;;;;;;;4.29;73.51;98823.25;5119972;27;39336;-86
2021/01/27 10:54:24;;;;;;;7.33;5.40;;;;;;;4.50;72.30;98822.41;5158688;27;41725;-84
2021/01/27 10:57:04;;;;;;;7.87;5.40;;;;;;;4.64;71.85;98827.97;5135958;27;43145;-87
2021/01/27 10:59:31;;;;;;;6.97;5.23;;;;;;;4.90;72.16;98833.97;5135044;27;41370;-84
2021/01/27 11:01:58;;;;;;;7.50;5.27;;;;;;;5.02;71.14;98836.09;5134148;27;39234;-84
2021/01/27 11:04:29;;;;;;;7.13;5.90;;;;;;;5.19;71.22;98838.06;5136872;27;41493;-86
2021/01/27 11:06:57;;;;;;;7.20;5.43;;;;;;;5.12;70.36;98821.69;5140356;27;42413;-84
2021/01/27 11:09:24;;;;;;;7.47;6.20;;;;;;;5.17;70.64;98817.13;5165215;27;42112;-85
2021/01/27 11:11:57;;;;;;;6.80;5.97;;;;;;;5.17;70.58;98803.13;5137681;27;38467;-86
2021/01/27 11:14:30;;;;;;;7.80;5.20;;;;;;;5.18;70.10;98800.44;5136401;27;42552;-88
2021/01/27 11:17:01;;;;;;;6.10;5.50;;;;;;;5.27;69.21;98815.81;5140528;27;42500;-85
2021/01/27 11:19:32;;;;;;;6.20;5.40;;;;;;;5.24;69.46;98797.56;5148636;27;42680;-84
2021/01/27 11:22:00;;;;;;;5.83;5.13;;;;;;;5.46;68.95;98847.38;5147370;27;39643;-86
2021/01/27 11:24:28;;;;;;;6.17;4.87;;;;;;;5.18;68.87;98831.94;5135792;27;41439;-86
2021/01/27 11:26:55;;;;;;;6.30;4.87;;;;;;;5.09;68.96;98848.03;5156393;27;41897;-86
2021/01/27 11:29:23;;;;;;;6.93;5.27;;;;;;;4.96;70.03;98831.09;5142007;27;41083;-87
2021/01/27 11:31:50;;;;;;;6.40;5.17;;;;;;;4.92;69.16;98846.13;5139583;27;39421;-84
2021/01/27 11:34:17;;;;;;;7.20;5.27;;;;;;;4.68;70.17;98820.84;5140430;27;40934;-89
2021/01/27 11:36:45;;;;;;;7.83;5.33;;;;;;;4.54;70.40;98818.78;5145678;27;42600;-85
2021/01/27 11:39:13;;;;;;;6.33;5.73;;;;;;;4.50;70.69;98816.31;5152872;27;41992;-85
2021/01/27 11:41:40;;;;;;;5.97;5.40;;;;;;;4.48;70.78;98812.91;5155465;27;39787;-86
2021/01/27 11:44:07;;;;;;;5.50;5.00;;;;;;;4.42;71.29;98814.00;5157019;27;40943;-88
2021/01/27 11:46:37;;;;;;;6.03;5.20;;;;;;;4.25;70.98;98806.75;5136367;27;41980;-84
2021/01/27 11:49:04;;;;;;;6.27;5.07;;;;;;;4.10;71.90;98801.25;5135091;27;41226;-86
2021/01/27 11:51:31;;;;;;;8.57;5.30;;;;;;;3.95;72.56;98789.59;5127801;27;39790;-88
2021/01/27 11:53:58;;;;;;;5.93;5.30;;;;;;;3.79;73.27;98781.44;5149372;27;40839;-87
2021/01/27 11:56:26;;;;;;;7.57;4.87;;;;;;;3.61;73.73;98750.66;5135701;27;42774;-87
2021/01/27 11:58:53;;;;;;;5.70;4.93;;;;;;;3.69;74.15;98759.09;5170025;27;42321;-88
2021/01/27 12:01:21;;;;;;;5.47;4.60;;;;;;;3.72;74.23;98753.72;5135823;27;39213;-85
2021/01/27 12:03:50;;;;;;;4.60;4.20;;;;;;;3.76;74.34;98744.88;5135638;27;40857;-86
2021/01/27 12:06:20;;;;;;;5.00;4.10;;;;;;;3.77;73.94;98741.34;5136251;27;42822;-85
2021/01/27 12:08:48;;;;;;;5.37;4.57;;;;;;;3.63;74.40;98743.59;5139743;27;41232;-85
2021/01/27 12:11:15;;;;;;;5.93;3.27;;;;;;;3.55;74.74;98729.94;5174677;27;39906;-86
2021/01/27 12:13:50;;;;;;;4.80;3.23;;;;;;;3.59;75.23;98726.28;5139126;27;40283;-86
2021/01/27 12:16:17;;;;;;;5.70;3.03;;;;;;;3.82;75.06;98733.31;5115069;27;42005;-88
2021/01/27 12:18:44;;;;;;;3.20;2.90;;;;;;;3.96;74.67;98738.88;5138250;27;41187;-85
2021/01/27 12:21:12;;;;;;;4.60;2.90;;;;;;;4.07;74.80;98739.34;5156122;27;39939;-86
2021/01/27 12:23:39;;;;;;;3.97;3.30;;;;;;;4.06;74.84;98721.06;5138996;27;40727;-90
2021/01/27 12:26:06;;;;;;;4.27;3.50;;;;;;;4.04;74.19;98717.63;5190243;27;43428;-86
2021/01/27 12:28:33;;;;;;;3.87;3.40;;;;;;;4.04;74.23;98712.41;5170737;27;40888;-85
2021/01/27 12:31:01;;;;;;;4.90;3.30;;;;;;;4.11;73.82;98729.56;5155177;27;39071;-86
2021/01/27 12:33:29;;;;;;;3.97;2.97;;;;;;;4.00;74.27;98711.66;5131276;27;40835;-84
2021/01/27 12:35:56;;;;;;;4.37;3.10;;;;;;;3.96;74.26;98705.66;5135015;27;42715;-87
2021/01/27 12:38:23;;;;;;;3.43;2.70;;;;;;;4.00;74.04;98700.31;5135121;27;41515;-88
2021/01/27 12:40:51;;;;;;;3.87;2.97;;;;;;;3.80;74.33;98661.81;5140009;27;38851;-88
2021/01/27 12:43:19;;;;;;;3.47;3.00;;;;;;;4.02;74.19;98688.00;5136102;27;40891;-87
2021/01/27 12:45:46;;;;;;;3.23;2.93;;;;;;;3.88;74.32;98671.06;5126696;27;43571;-89
2021/01/27 12:48:14;;;;;;;4.83;3.40;;;;;;;3.84;74.52;98664.22;5118093;27;40862;-87
2021/01/27 12:50:43;;;;;;;3.57;3.27;;;;;;;3.76;74.54;98658.44;5121024;27;39951;-88
2021/01/27 12:53:30;;;;;;;3.63;3.30;;;;;;;3.92;74.50;98675.28;5173924;27;41289;-91
2021/01/27 12:55:59;;;;;;;3.43;2.90;;;;;;;3.90;74.55;98669.25;5135960;27;41805;-91
2021/01/27 12:58:31;;;;;;;4.53;3.30;;;;;;;3.77;74.34;98654.91;5130960;27;40994;-90
2021/01/27 13:00:58;;;;;;;4.17;3.13;;;;;;;3.92;74.22;98677.91;5155666;27;39966;-90
2021/01/27 13:03:27;;;;;;;2.97;2.73;;;;;;;4.06;74.63;98673.88;5155986;27;41449;-83
2021/01/27 13:05:54;;;;;;;2.93;2.73;;;;;;;4.07;74.47;98660.72;5173670;27;42198;-91
2021/01/27 13:08:21;;;;;;;3.10;2.67;;;;;;;4.07;73.90;98665.97;5173334;27;41073;-86
2021/01/27 13:10:48;;;;;;;2.93;2.63;;;;;;;4.10;73.75;98680.69;5137611;27;39258;-89
2021/01/27 13:13:16;;;;;;;3.73;3.10;;;;;;;4.04;73.80;98675.72;5136964;27;40535;-85
2021/01/27 13:15:43;;;;;;;3.17;2.50;;;;;;;3.80;74.27;98652.19;5138789;27;42694;-87
2021/01/27 13:18:11;;;;;;;3.90;2.63;;;;;;;3.86;73.98;98662.41;5135418;27;41868;-83
2021/01/27 13:20:39;;;;;;;3.03;2.33;;;;;;;3.83;74.41;98656.44;5142726;27;40436;-84
2021/01/27 13:23:06;;;;;;;4.23;2.67;;;;;;;3.84;74.13;98656.38;5138135;27;41785;-83
2021/01/27 13:25:33;;;;;;;5.30;2.73;;;;;;;3.76;74.48;98652.34;5135182;27;41686;-87
2021/01/27 13:28:01;;;;;;;2.83;2.30;;;;;;;3.79;74.43;98654.84;5155585;27;41095;-86
2021/01/27 13:30:31;;;;;;;3.73;2.23;;;;;;;3.88;74.73;98665.81;5156637;27;38477;-84
2021/01/27 13:32:58;;;;;;;2.90;2.57;;;;;;;3.83;74.77;98641.56;5135641;27;40967;-87
2021/01/27 13:35:28;;;;;;;2.87;2.30;;;;;;;3.91;74.19;98665.72;5169797;27;42181;-85
2021/01/27 13:37:57;;;;;;;2.73;2.53;;;;;;;3.87;74.36;98643.16;5189211;27;41806;-87
2021/01/27 13:40:26;;;;;;;3.77;2.40;;;;;;;3.80;74.67;98623.38;5173485;27;38872;-90
2021/01/27 13:42:55;;;;;;;2.57;2.37;;;;;;;3.84;74.70;98619.69;5117282;27;40725;-87
2021/01/27 13:45:23;;;;;;;3.07;2.20;;;;;;;3.86;74.49;98625.72;5152526;27;42788;-87
2021/01/27 13:47:51;;;;;;;2.40;2.20;;;;;;;3.95;74.30;98628.00;5127225;27;41187;-88
2021/01/27 13:50:19;;;;;;;2.53;2.00;;;;;;;3.92;74.10;98629.88;5138542;27;39494;-85
2021/01/27 13:52:47;;;;;;;4.03;2.20;;;;;;;3.95;74.25;98637.63;5138395;27;40877;-89
2021/01/27 13:55:16;;;;;;;4.93;2.60;;;;;;;3.78;74.34;98606.84;5139685;27;41631;-89
2021/01/27 13:57:43;;;;;;;2.30;2.10;;;;;;;3.94;74.33;98633.31;5141973;27;41072;-87
2021/01/27 14:00:14;;;;;;;2.87;2.10;;;;;;;3.85;74.48;98616.16;5137334;27;38869;-83
2021/01/27 14:02:42;;;;;;;2.57;2.30;;;;;;;3.93;75.21;98621.97;5144058;27;40732;-85
2021/01/27 14:05:10;;;;;;;2.50;2.30;;;;;;;3.95;74.69;98604.44;5173148;27;42725;-86
2021/01/27 14:07:37;;;;;;;2.87;2.60;;;;;;;3.96;74.57;98608.72;5153046;27;41327;-83
2021/01/27 14:10:06;;;;;;;4.37;2.40;;;;;;;3.97;75.02;98606.97;5150108;27;39586;-86
2021/01/27 14:12:34;;;;;;;2.93;2.70;;;;;;;3.92;74.87;98604.56;5150908;27;41901;-83
2021/01/27 14:15:01;;;;;;;2.67;2.47;;;;;;;3.95;75.01;98614.91;5156134;27;41768;-85
2021/01/27 14:17:28;;;;;;;3.90;2.53;;;;;;;3.82;75.05;98597.97;5133471;27;41958;-84
2021/01/27 14:19:57;;;;;;;3.30;2.60;;;;;;;3.92;75.04;98608.94;5165078;27;39601;-83
2021/01/27 14:22:24;;;;;;;12.67;8.07;;;;;;;3.98;75.01;98612.16;5181728;27;41665;-87
2021/01/27 14:24:53;;;;;;;4.33;3.60;;;;;;;4.05;74.87;98615.41;5146230;27;42621;-87
2021/01/27 14:27:21;;;;;;;3.00;2.70;;;;;;;4.08;74.94;98612.63;5147443;27;41339;-85
2021/01/27 14:29:49;;;;;;;3.70;3.00;;;;;;;4.05;75.02;98593.56;5146069;27;39087;-85
2021/01/27 14:32:16;;;;;;;4.00;2.83;;;;;;;4.21;74.79;98607.75;5167158;27;40745;-89
2021/01/27 14:34:44;;;;;;;2.70;2.50;;;;;;;4.27;74.85;98615.38;5140489;27;42170;-83
2021/01/27 14:37:11;;;;;;;3.00;2.70;;;;;;;4.16;74.54;98596.63;5141245;27;41146;-82
2021/01/27 14:39:38;;;;;;;2.97;2.63;;;;;;;4.18;74.76;98610.50;5141456;27;38898;-81
2021/01/27 14:42:05;;;;;;;3.23;2.67;;;;;;;4.10;75.01;98608.19;5167350;27;42357;-81
2021/01/27 14:44:34;;;;;;;2.70;2.50;;;;;;;4.12;74.69;98626.47;5138045;27;42914;-94
2021/01/27 14:47:02;;;;;;;3.10;2.40;;;;;;;3.94;75.20;98597.50;5122327;27;42033;-86
2021/01/27 14:49:29;;;;;;;2.93;2.50;;;;;;;3.88;75.21;98587.25;5139416;27;38767;-90
2021/01/27 14:51:56;;;;;;;5.80;2.43;;;;;;;3.86;75.30;98589.06;5140766;27;40878;-87
2021/01/27 14:54:23;;;;;;;3.03;2.53;;;;;;;3.93;75.55;98595.78;5155245;27;41893;-83
2021/01/27 14:56:51;;;;;;;2.80;2.60;;;;;;;3.93;75.67;98594.94;5157993;27;41758;-89
2021/01/27 14:59:18;;;;;;;3.03;2.40;;;;;;;3.96;75.55;98606.09;5124059;27;38939;-85
2021/01/27 15:02:10;;;;;;;2.80;2.60;;;;;;;3.56;75.85;98544.00;5173781;27;41608;-84
2021/01/27 15:04:37;;;;;;;3.27;2.47;;;;;;;3.82;75.80;98589.25;5125482;27;42880;-86
2021/01/27 15:07:04;;;;;;;2.50;2.27;;;;;;;3.84;75.90;98596.13;5140759;27;41253;-85
2021/01/27 15:09:32;;;;;;;3.50;2.77;;;;;;;3.88;76.27;98610.81;5141079;27;39132;-85
2021/01/27 15:12:01;;;;;;;4.37;3.00;;;;;;;3.80;76.24;98604.19;5141320;27;40981;-85
2021/01/27 15:14:29;;;;;;;5.77;2.90;;;;;;;3.53;76.46;98566.81;5154650;27;42819;-84
2021/01/27 15:16:56;;;;;;;2.70;2.50;;;;;;;3.81;76.28;98603.28;5154087;27;41881;-84
2021/01/27 15:19:24;;;;;;;3.07;2.73;;;;;;;3.78;76.62;98617.31;5138419;27;39798;-83
2021/01/27 15:21:51;;;;;;;3.03;2.80;;;;;;;3.65;76.80;98603.00;5138467;27;40715;-83
2021/01/27 15:24:18;;;;;;;4.80;2.87;;;;;;;3.65;76.92;98610.00;5139466;27;41741;-86
2021/01/27 15:26:46;;;;;;;3.20;2.73;;;;;;;3.63;76.97;98611.81;5168857;27;42589;-85
2021/01/27 15:29:13;;;;;;;3.00;2.67;;;;;;;3.66;77.46;98622.19;5139815;27;39236;-85
2021/01/27 15:31:41;;;;;;;3.13;2.83;;;;;;;3.51;77.35;98608.75;5171811;27;42409;-81
2021/01/27 15:34:08;;;;;;;3.80;3.20;;;;;;;3.62;77.68;98616.19;5136903;27;41942;-88
2021/01/27 15:36:36;;;;;;;3.73;2.73;;;;;;;3.45;77.86;98595.94;5149772;27;41423;-82
2021/01/27 15:39:03;;;;;;;5.00;3.20;;;;;;;3.55;77.86;98617.38;5176100;27;39550;-82
2021/01/27 15:41:31;;;;;;;3.27;2.97;;;;;;;3.43;77.60;98599.50;5135351;27;40402;-86
2021/01/27 15:43:58;;;;;;;3.37;3.07;;;;;;;3.40;78.01;98605.72;5174161;27;42311;-84
2021/01/27 15:46:25;;;;;;;5.73;3.30;;;;;;;3.31;78.07;98606.06;5156224;27;41415;-84
2021/01/27 15:48:52;;;;;;;3.30;3.00;;;;;;;3.23;78.43;98582.78;5166400;27;39802;-86
2021/01/27 15:51:20;;;;;;;4.70;3.57;;;;;;;3.29;78.22;98596.56;5138775;27;40641;-84
2021/01/27 15:53:48;;;;;;;5.33;4.20;;;;;;;3.30;77.97;98593.03;5138819;27;41464;-88
2021/01/27 15:56:15;;;;;;;4.67;4.10;;;;;;;3.38;78.28;98617.13;5135297;27;42034;-86
2021/01/27 15:58:42;;;;;;;3.70;3.30;;;;;;;3.33;78.18;98619.09;5139030;27;38856;-87
2021/01/27 16:01:09;;;;;;;3.13;2.83;;;;;;;3.31;78.31;98608.69;5133661;27;40697;-81
2021/01/27 16:03:36;;;;;;;4.27;3.60;;;;;;;3.32;78.50;98612.16;5151450;27;42629;-85
2021/01/27 16:06:07;;;;;;;3.23;2.90;;;;;;;3.28;78.33;98594.84;5174136;27;42087;-84
2021/01/27 16:08:34;;;;;;;4.37;3.30;;;;;;;3.23;78.50;98598.47;5156264;27;39992;-82
2021/01/27 16:11:03;;;;;;;4.17;3.77;;;;;;;3.28;78.23;98607.94;5138468;27;41555;-83
2021/01/27 16:13:30;;;;;;;4.43;3.30;;;;;;;3.30;78.53;98614.81;5155914;27;42253;-80
2021/01/27 16:15:57;;;;;;;3.53;3.23;;;;;;;3.14;78.55;98590.13;5174160;27;41873;-85
2021/01/27 16:18:24;;;;;;;3.40;3.10;;;;;;;3.02;78.49;98583.56;5155912;27;38902;-84
2021/01/27 16:20:51;;;;;;;3.87;3.57;;;;;;;3.14;78.54;98604.06;5155647;27;40607;-86
2021/01/27 16:23:18;;;;;;;3.43;3.13;;;;;;;3.09;78.57;98587.66;5155177;27;43382;-87
2021/01/27 16:25:45;;;;;;;3.83;3.00;;;;;;;3.12;78.78;98590.16;5138505;27;41523;-85
2021/01/27 16:28:14;;;;;;;3.97;3.57;;;;;;;3.10;78.82;98584.13;5155122;27;39946;-85
2021/01/27 16:30:41;;;;;;;5.67;3.60;;;;;;;3.08;78.67;98585.97;5138726;27;40323;-88
2021/01/27 16:33:09;;;;;;;3.93;3.53;;;;;;;3.20;78.80;98614.31;5138188;27;42196;-82
2021/01/27 16:35:37;;;;;;;4.53;3.47;;;;;;;3.10;78.88;98589.38;5137818;27;42487;-86
2021/01/27 16:38:06;;;;;;;4.17;3.53;;;;;;;3.14;78.81;98588.34;5155939;27;39156;-86
2021/01/27 16:40:34;;;;;;;3.87;3.30;;;;;;;3.24;78.73;98600.19;5138678;27;40952;-86
2021/01/27 16:43:01;;;;;;;4.33;3.50;;;;;;;3.17;78.62;98592.63;5138285;27;42819;-85
2021/01/27 16:45:31;;;;;;;4.80;4.00;;;;;;;3.22;78.84;98599.38;5138649;27;41520;-83
2021/01/27 16:47:59;;;;;;;4.13;3.57;;;;;;;3.16;78.80;98588.31;5153432;27;40007;-82
2021/01/27 16:50:26;;;;;;;3.83;3.47;;;;;;;3.08;78.88;98572.91;5154771;27;40887;-84
2021/01/27 16:52:54;;;;;;;3.73;3.43;;;;;;;3.18;78.84;98589.97;5155505;27;41753;-84
2021/01/27 16:55:23;;;;;;;6.30;3.70;;;;;;;3.03;78.60;98566.97;5138686;27;41154;-82
2021/01/27 16:57:51;;;;;;;3.80;3.50;;;;;;;3.14;78.96;98588.34;5138295;27;38825;-86
2021/01/27 17:00:22;;;;;;;3.57;3.27;;;;;;;3.23;78.60;98590.63;5139207;27;40657;-83
2021/01/27 17:02:53;;;;;;;4.10;3.70;;;;;;;3.23;78.91;98582.78;5151690;27;41767;-83
2021/01/27 17:05:21;;;;;;;4.23;3.83;;;;;;;3.07;78.94;98567.72;5159913;27;41109;-82
2021/01/27 17:07:48;;;;;;;3.70;3.30;;;;;;;3.16;79.04;98578.69;5159147;27;39546;-84
2021/01/27 17:10:16;;;;;;;4.10;3.70;;;;;;;3.18;79.19;98589.97;5160542;27;40816;-86
2021/01/27 17:12:43;;;;;;;4.07;3.27;;;;;;;3.07;78.77;98565.97;5177020;27;42103;-85
2021/01/27 17:15:12;;;;;;;4.20;3.90;;;;;;;3.05;78.87;98562.53;5138236;27;41138;-85
2021/01/27 17:17:42;;;;;;;5.00;3.80;;;;;;;2.87;78.96;98531.81;5154679;27;38862;-84
2021/01/27 17:20:12;;;;;;;4.37;3.97;;;;;;;3.19;79.02;98594.28;5138351;27;43396;-85
2021/01/27 17:22:39;;;;;;;4.67;4.23;;;;;;;3.10;79.08;98572.81;5137802;27;42008;-85
2021/01/27 17:25:09;;;;;;;3.77;3.47;;;;;;;3.22;78.80;98595.91;5154990;27;42588;-84
2021/01/27 17:27:36;;;;;;;3.50;3.20;;;;;;;3.25;78.85;98594.03;5155138;27;39092;-81
2021/01/27 17:30:06;;;;;;;3.73;3.43;;;;;;;3.28;78.55;98594.84;5138493;27;41785;-85
2021/01/27 17:32:33;;;;;;;3.60;3.30;;;;;;;3.15;78.47;98573.50;5154923;27;42195;-84
2021/01/27 17:35:00;;;;;;;3.53;3.20;;;;;;;3.27;78.73;98588.75;5142216;27;42016;-85
2021/01/27 17:37:29;;;;;;;3.93;3.63;;;;;;;3.29;78.44;98601.78;5134022;27;40196;-82
2021/01/27 17:39:56;;;;;;;4.07;3.77;;;;;;;3.23;78.67;98592.38;5119773;27;40706;-82
2021/01/27 17:42:23;;;;;;;4.50;4.00;;;;;;;3.21;78.89;98600.28;5172593;27;42440;-81
2021/01/27 17:44:51;;;;;;;4.07;3.77;;;;;;;3.20;78.80;98596.00;5138089;27;41475;-83
